EmailTwitter


Surface observations / Quebec / CYUL (71627)

Regions: Quebec | Canada | USA | Europe | France | UK | Elsewhere
Station
Display
Info & Location for CYUL (71627) | Help decoding METAR

Weather Conditions observed on 2018/10/15 at 14:00 UTC at MONTREAL INTL A, QB (CYUL)

Sky conditions: overcast.

Temperature: 9.0 Celsius.

Dewpoint: 6.0 Celsius.

Relative Humidity: 81%

Windchill Factor: 6.

Windchill Factor (Gusts): 5.

Winds: Southeast at 22 km/h or 12 knots.

Gust: 37 km/h or 20 knots.

Mean Sea level Pressure: 101.38 kilopascals.

Altimeter Setting (QNH): 101.35 kilopascals or 29.93 inches of mercury.

Horizontal visibility: 15.00 statute miles or 24.00 kilometers.

Height of the Ceiling: 4572 metres ( 15000 feet ).

Coded METAR:

CYUL 151400Z 14012G20KT 15SM SCT110 BKN150 OVC200 09/06 A2993 RMK AC4AS3CS1

PRESFR SLP138=